Calgary, Canada
Current Conditions -  °F | °C
As of 4:00 AM on Sunday 23 Nov 2014 (Local Time) from CYYC Reporting Station
Broken Clouds Broken Clouds  
Wind Chill: 25°   Ceiling: 1000
Heat Index: 25°   Visibility: 7mi
Dew Point: 21°   Wind: 3mph
Humidity: 86%   Direction: 120°ESE
Pressure: 29.75"   Gusts: NA
Location:  51.05°N, 114.06°W
Report Text: CYYC 231100Z 12003KT 7SM BKN010 M04/M06 A2975 RMK SC7 SLP121
Loading
Personal Weather Stations






























Interactive Weather Map New forecast layout! Learn more

10-Day Weather Forecast

Advertisements
Track Severe Weather on mobile